Time;durP1;ratioP1;P1;durP2;ratioP2;P2;SDS_P1;SDS_P2;PMS_P1;PMS_P2;Temp;Humidity;BMP_temperature;BMP_pressure;BME280_temperature;BME280_humidity;BME280_pressure;Samples;Min_cycle;Max_cycle;Signal;HPM_P1;HPM_P2
2022/05/19 00:02:17;;;;;;;;;;;;;;;17.22;57.92;96920.19;5054259;28;19953;-72
2022/05/19 00:04:43;;;;;;;;;;;;;;;17.19;57.78;96923.34;5053718;28;19959;-72
2022/05/19 00:07:09;;;;;;;;;;;;;;;17.15;57.99;96922.22;5054368;28;19964;-72
2022/05/19 00:09:36;;;;;;;;;;;;;;;17.10;58.22;96920.31;5054269;28;19955;-72
2022/05/19 00:12:04;;;;;;;;;;;;;;;17.08;58.04;96916.31;5053708;28;19983;-72
2022/05/19 00:14:31;;;;;;;;;;;;;;;17.02;58.27;96918.91;5047149;28;19975;-72
2022/05/19 00:16:57;;;;;;;;;;;;;;;16.99;58.11;96915.97;5053900;28;19961;-71
2022/05/19 00:19:24;;;;;;;;;;;;;;;16.95;58.42;96926.25;5036840;28;19956;-72
2022/05/19 00:21:50;;;;;;;;;;;;;;;16.90;58.24;96920.88;5054159;28;19960;-72
2022/05/19 00:24:16;;;;;;;;;;;;;;;16.87;58.28;96915.28;5053976;28;19953;-71
2022/05/19 00:26:42;;;;;;;;;;;;;;;16.82;58.34;96914.19;5053995;28;20646;-72
2022/05/19 00:29:08;;;;;;;;;;;;;;;16.79;58.53;96904.03;5057101;28;20499;-72
2022/05/19 00:31:34;;;;;;;;;;;;;;;16.75;58.48;96902.13;5055689;28;20427;-71
2022/05/19 00:34:01;;;;;;;;;;;;;;;16.71;58.53;96898.34;5053764;28;19962;-71
2022/05/19 00:36:27;;;;;;;;;;;;;;;16.67;58.69;96902.53;5053609;28;19968;-72
2022/05/19 00:38:53;;;;;;;;;;;;;;;16.62;59.15;96901.44;5054439;28;21137;-72
2022/05/19 00:41:19;;;;;;;;;;;;;;;16.57;58.75;96893.44;5059512;28;20427;-72
2022/05/19 00:43:55;;;;;;;;;;;;;;;16.54;58.86;96895.75;5056552;28;19956;-72
2022/05/19 00:46:24;;;;;;;;;;;;;;;16.50;59.29;96900.72;5065706;28;19966;-72
2022/05/19 00:48:54;;;;;;;;;;;;;;;16.47;58.80;96893.28;5056379;28;19956;-71
2022/05/19 00:51:24;;;;;;;;;;;;;;;16.43;58.97;96895.63;5046065;28;19974;-72
2022/05/19 00:53:54;;;;;;;;;;;;;;;16.36;58.90;96895.00;5061816;28;19968;-71
2022/05/19 00:56:25;;;;;;;;;;;;;;;16.31;59.15;96894.13;5057515;28;20411;-72
2022/05/19 00:59:00;;;;;;;;;;;;;;;16.27;59.36;96890.34;5060010;28;19962;-71
2022/05/19 01:01:26;;;;;;;;;;;;;;;16.22;59.77;96894.53;5053633;28;19952;-72
2022/05/19 01:04:03;;;;;;;;;;;;;;;16.19;59.86;96887.09;5036489;28;19975;-72
2022/05/19 01:06:30;;;;;;;;;;;;;;;16.16;59.88;96884.91;5052908;28;20458;-71
2022/05/19 01:09:15;;;;;;;;;;;;;;;16.14;59.93;96886.19;5053272;28;19976;-72
2022/05/19 01:11:41;;;;;;;;;;;;;;;16.10;59.74;96880.59;5053197;28;20047;-72
2022/05/19 01:14:07;;;;;;;;;;;;;;;16.06;59.83;96876.03;5053365;28;19963;-72
2022/05/19 01:16:33;;;;;;;;;;;;;;;16.03;60.10;96880.75;5035391;28;20444;-71
2022/05/19 01:19:00;;;;;;;;;;;;;;;16.02;60.70;96894.22;5053227;28;20437;-72
2022/05/19 01:21:27;;;;;;;;;;;;;;;15.99;60.13;96881.50;5053424;28;19959;-72
2022/05/19 01:24:19;;;;;;;;;;;;;;;15.97;60.00;96880.94;5051867;28;19968;-72
2022/05/19 01:26:47;;;;;;;;;;;;;;;15.93;60.40;96885.09;5053443;28;20074;-71
2022/05/19 01:29:14;;;;;;;;;;;;;;;15.90;60.10;96881.09;5056316;28;20423;-71
2022/05/19 01:31:54;;;;;;;;;;;;;;;15.88;60.35;96883.19;5052862;28;20531;-72
2022/05/19 01:34:22;;;;;;;;;;;;;;;15.86;60.04;96881.81;5053642;28;19960;-72
2022/05/19 01:36:53;;;;;;;;;;;;;;;15.82;59.85;96878.84;5040874;28;20312;-71
2022/05/19 01:39:21;;;;;;;;;;;;;;;15.79;60.48;96880.13;5052426;28;19962;-71
2022/05/19 01:41:53;;;;;;;;;;;;;;;15.77;60.65;96882.22;5053410;28;19964;-72
2022/05/19 01:44:26;;;;;;;;;;;;;;;15.73;60.62;96878.44;5052966;28;19962;-72
2022/05/19 01:46:59;;;;;;;;;;;;;;;15.69;61.15;96879.94;5053216;28;20434;-71
2022/05/19 01:49:30;;;;;;;;;;;;;;;15.66;60.65;96871.69;5053005;28;19964;-71
2022/05/19 01:52:05;;;;;;;;;;;;;;;15.65;60.82;96881.47;5052989;28;19970;-72
2022/05/19 01:54:43;;;;;;;;;;;;;;;15.62;61.04;96874.00;5053068;28;19964;-72
2022/05/19 01:57:24;;;;;;;;;;;;;;;15.59;61.03;96869.97;5052299;28;19958;-72
2022/05/19 02:00:09;;;;;;;;;;;;;;;15.57;61.10;96880.00;5057052;28;20342;-72
2022/05/19 02:02:48;;;;;;;;;;;;;;;15.54;61.60;96879.66;5056489;28;20331;-72
2022/05/19 02:05:39;;;;;;;;;;;;;;;15.50;61.46;96879.38;5056617;28;20412;-72
2022/05/19 02:08:07;;;;;;;;;;;;;;;15.46;61.75;96877.44;5063260;28;19956;-71
2022/05/19 02:10:37;;;;;;;;;;;;;;;15.43;61.87;96878.69;5056253;28;20003;-71
2022/05/19 02:13:04;;;;;;;;;;;;;;;15.41;61.97;96878.13;5056458;28;19989;-72
2022/05/19 02:15:34;;;;;;;;;;;;;;;15.39;62.03;96874.91;5048584;28;20353;-72
2022/05/19 02:18:00;;;;;;;;;;;;;;;15.36;61.91;96876.19;5056596;28;19974;-72
2022/05/19 02:20:27;;;;;;;;;;;;;;;15.33;62.12;96876.69;5056591;28;19966;-72
2022/05/19 02:22:54;;;;;;;;;;;;;;;15.29;61.84;96872.13;5056096;28;19966;-71
2022/05/19 02:25:25;;;;;;;;;;;;;;;15.27;62.09;96872.34;5056386;28;19961;-71
2022/05/19 02:27:51;;;;;;;;;;;;;;;15.23;62.21;96869.38;5039858;28;19970;-72
2022/05/19 02:30:25;;;;;;;;;;;;;;;15.20;62.32;96869.03;5056936;28;19958;-72
2022/05/19 02:32:51;;;;;;;;;;;;;;;15.17;62.50;96867.69;5056181;28;19975;-72
2022/05/19 02:35:17;;;;;;;;;;;;;;;15.14;62.54;96872.63;5054641;28;20011;-72
2022/05/19 02:37:43;;;;;;;;;;;;;;;15.10;62.88;96877.59;5056126;28;19964;-71
2022/05/19 02:40:11;;;;;;;;;;;;;;;15.07;62.99;96877.25;5055807;28;19965;-72
2022/05/19 02:42:37;;;;;;;;;;;;;;;15.03;62.90;96874.28;5055977;28;19968;-72
2022/05/19 02:45:04;;;;;;;;;;;;;;;15.00;62.83;96872.91;5055944;28;20404;-72
2022/05/19 02:47:30;;;;;;;;;;;;;;;14.96;62.88;96879.69;5055131;28;20327;-71
2022/05/19 02:49:55;;;;;;;;;;;;;;;14.92;63.22;96883.84;5055061;28;19961;-71
2022/05/19 02:52:27;;;;;;;;;;;;;;;14.89;62.93;96878.22;5020681;28;19969;-71
2022/05/19 02:54:52;;;;;;;;;;;;;;;14.86;63.13;96876.84;5058795;28;20486;-71
2022/05/19 02:57:19;;;;;;;;;;;;;;;14.84;63.15;96875.50;5055116;28;20011;-71
2022/05/19 02:59:45;;;;;;;;;;;;;;;14.81;63.21;96879.41;5056055;28;19956;-72
2022/05/19 03:02:11;;;;;;;;;;;;;;;14.77;63.36;96873.78;5055677;28;19961;-72
2022/05/19 03:04:37;;;;;;;;;;;;;;;14.74;63.38;96876.09;5055453;28;19961;-71
2022/05/19 03:07:03;;;;;;;;;;;;;;;14.70;63.33;96870.50;5055786;28;19988;-71
2022/05/19 03:09:29;;;;;;;;;;;;;;;14.69;63.63;96873.34;5054755;28;19972;-71
2022/05/19 03:11:58;;;;;;;;;;;;;;;14.65;63.58;96861.66;5054989;28;19995;-72
2022/05/19 03:14:45;;;;;;;;;;;;;;;14.62;63.86;96857.66;5043618;28;19973;-71
2022/05/19 03:17:11;;;;;;;;;;;;;;;14.60;63.87;96867.63;5053206;28;19968;-71
2022/05/19 03:19:37;;;;;;;;;;;;;;;14.57;63.86;96854.88;5055366;28;20009;-71
2022/05/19 03:22:04;;;;;;;;;;;;;;;14.56;63.93;96856.75;5054591;28;20339;-72
2022/05/19 03:24:30;;;;;;;;;;;;;;;14.53;63.79;96853.72;5055117;28;19995;-71
2022/05/19 03:26:56;;;;;;;;;;;;;;;14.51;64.28;96858.44;5055519;28;20324;-72
2022/05/19 03:29:23;;;;;;;;;;;;;;;14.48;63.97;96849.16;5056928;28;20058;-72
2022/05/19 03:31:49;;;;;;;;;;;;;;;14.48;64.21;96851.00;5055188;28;19962;-72
2022/05/19 03:34:17;;;;;;;;;;;;;;;14.45;63.90;96852.25;5054958;28;19958;-72
2022/05/19 03:36:44;;;;;;;;;;;;;;;14.46;64.39;96859.13;5054848;28;19963;-72
2022/05/19 03:39:10;;;;;;;;;;;;;;;14.46;64.65;96866.25;5054739;28;19982;-72
2022/05/19 03:41:36;;;;;;;;;;;;;;;14.45;64.59;96867.28;5054911;28;19963;-72
2022/05/19 03:44:02;;;;;;;;;;;;;;;14.45;64.22;96875.19;5054886;28;20536;-71
2022/05/19 03:46:28;;;;;;;;;;;;;;;14.44;64.79;96877.03;5054878;28;19963;-72
2022/05/19 03:48:54;;;;;;;;;;;;;;;14.44;64.82;96874.38;5054152;28;20017;-71
2022/05/19 03:51:24;;;;;;;;;;;;;;;14.43;64.66;96879.91;5054588;28;20012;-72
2022/05/19 03:53:50;;;;;;;;;;;;;;;14.40;64.09;96879.34;5054854;28;19991;-72
2022/05/19 03:56:17;;;;;;;;;;;;;;;14.32;63.97;96865.69;5054116;28;19962;-72
2022/05/19 03:58:42;;;;;;;;;;;;;;;14.20;64.23;96874.41;5054397;28;19988;-71
2022/05/19 04:01:08;;;;;;;;;;;;;;;14.18;64.81;96873.06;5054518;28;20406;-72
2022/05/19 04:03:40;;;;;;;;;;;;;;;14.17;64.64;96879.34;5036705;28;19966;-72
2022/05/19 04:06:06;;;;;;;;;;;;;;;14.19;64.69;96877.28;5054513;28;19957;-72
2022/05/19 04:08:32;;;;;;;;;;;;;;;14.22;65.08;96874.19;5054334;28;19963;-72
2022/05/19 04:10:58;;;;;;;;;;;;;;;14.24;65.08;96873.94;5054389;28;20437;-71
2022/05/19 04:13:24;;;;;;;;;;;;;;;14.27;64.97;96879.56;5053777;28;21469;-72
2022/05/19 04:15:50;;;;;;;;;;;;;;;14.31;65.26;96882.56;5054193;28;19992;-71
2022/05/19 04:18:16;;;;;;;;;;;;;;;14.31;65.59;96880.72;5054022;28;19958;-73
2022/05/19 04:20:43;;;;;;;;;;;;;;;14.35;65.64;96888.97;5053406;28;19962;-72
2022/05/19 04:23:10;;;;;;;;;;;;;;;14.39;65.41;96887.50;5053841;28;19974;-71
2022/05/19 04:25:36;;;;;;;;;;;;;;;14.45;65.35;96885.75;5053717;28;19968;-71
2022/05/19 04:28:02;;;;;;;;;;;;;;;14.52;66.02;96892.50;5057100;28;19965;-72
2022/05/19 04:30:28;;;;;;;;;;;;;;;14.62;65.86;96881.41;5053089;28;19971;-72
2022/05/19 04:32:54;;;;;;;;;;;;;;;14.72;65.64;96883.44;5053799;28;19975;-72
2022/05/19 04:35:20;;;;;;;;;;;;;;;14.78;64.81;96880.69;5053736;28;19967;-72
2022/05/19 04:37:47;;;;;;;;;;;;;;;14.88;65.03;96880.06;5035875;28;20443;-72
2022/05/19 04:40:13;;;;;;;;;;;;;;;15.02;64.99;96881.41;5053338;28;19974;-72
2022/05/19 04:42:40;;;;;;;;;;;;;;;15.16;64.28;96884.56;5065058;28;19995;-72
2022/05/19 04:45:07;;;;;;;;;;;;;;;15.35;64.13;96879.91;5054408;28;19966;-73
2022/05/19 04:47:32;;;;;;;;;;;;;;;15.51;63.64;96882.78;5055366;28;19962;-72
2022/05/19 04:49:58;;;;;;;;;;;;;;;15.66;62.97;96885.69;5053533;28;19968;-71
2022/05/19 04:52:24;;;;;;;;;;;;;;;15.84;62.77;96884.69;5053452;28;20006;-72
2022/05/19 04:54:50;;;;;;;;;;;;;;;16.08;62.30;96887.16;5053265;28;20402;-71
2022/05/19 04:57:16;;;;;;;;;;;;;;;16.33;61.72;96890.19;5053567;28;20363;-72
2022/05/19 04:59:42;;;;;;;;;;;;;;;16.55;60.64;96890.22;5053711;28;19964;-72
2022/05/19 05:02:09;;;;;;;;;;;;;;;16.63;60.00;96879.22;5053429;28;19971;-71
2022/05/19 05:04:36;;;;;;;;;;;;;;;16.59;60.13;96883.41;5053304;28;19965;-72
2022/05/19 05:07:02;;;;;;;;;;;;;;;16.64;60.09;96883.44;5064042;28;19964;-71
2022/05/19 05:09:28;;;;;;;;;;;;;;;16.80;60.12;96881.84;5053096;28;19961;-72
2022/05/19 05:11:59;;;;;;;;;;;;;;;16.91;59.62;96868.72;5052751;28;19993;-72
2022/05/19 05:14:45;;;;;;;;;;;;;;;17.02;59.79;96879.16;5030916;28;19973;-71
2022/05/19 05:17:11;;;;;;;;;;;;;;;17.18;59.36;96872.19;5053526;28;20330;-72
2022/05/19 05:19:37;;;;;;;;;;;;;;;17.37;58.96;96867.34;5052830;28;20053;-71
2022/05/19 05:22:03;;;;;;;;;;;;;;;17.45;58.56;96861.56;5052490;28;20041;-72
2022/05/19 05:24:38;;;;;;;;;;;;;;;17.48;58.47;96862.91;5053216;28;20338;-71
2022/05/19 05:27:05;;;;;;;;;;;;;;;17.62;58.23;96855.38;5055870;28;19967;-72
2022/05/19 05:29:32;;;;;;;;;;;;;;;17.86;58.11;96858.47;5058516;28;20025;-72
2022/05/19 05:31:58;;;;;;;;;;;;;;;18.08;57.40;96847.78;5053678;28;19966;-72
2022/05/19 05:34:24;;;;;;;;;;;;;;;18.24;57.38;96853.97;5056518;28;19965;-72
2022/05/19 05:36:50;;;;;;;;;;;;;;;18.37;56.50;96850.88;5063813;28;19960;-72
2022/05/19 05:39:16;;;;;;;;;;;;;;;18.55;56.71;96854.13;5056324;28;19956;-71
2022/05/19 05:41:42;;;;;;;;;;;;;;;18.69;55.87;96847.28;5057436;28;20028;-72
2022/05/19 05:44:08;;;;;;;;;;;;;;;18.90;55.84;96836.75;5056873;28;19963;-72
2022/05/19 05:46:34;;;;;;;;;;;;;;;19.15;55.70;96839.47;5056485;28;20407;-72
2022/05/19 05:49:00;;;;;;;;;;;;;;;19.48;55.37;96840.81;5057017;28;19965;-72
2022/05/19 05:51:26;;;;;;;;;;;;;;;19.79;54.67;96837.41;5053558;28;20008;-72
2022/05/19 05:53:52;;;;;;;;;;;;;;;20.03;53.73;96834.97;5057187;28;19991;-72
2022/05/19 05:56:19;;;;;;;;;;;;;;;20.22;53.31;96840.53;5062333;28;19962;-72
2022/05/19 05:58:46;;;;;;;;;;;;;;;20.35;52.71;96829.34;5056834;28;20001;-72
2022/05/19 06:01:30;;;;;;;;;;;;;;;20.45;52.74;96834.63;5056853;28;19963;-72
2022/05/19 06:03:56;;;;;;;;;;;;;;;20.56;51.64;96827.41;5056855;28;19965;-72
2022/05/19 06:06:22;;;;;;;;;;;;;;;20.67;52.28;96820.19;5056799;28;20051;-71
2022/05/19 06:08:47;;;;;;;;;;;;;;;20.76;51.11;96815.88;5056521;28;20014;-72
2022/05/19 06:11:13;;;;;;;;;;;;;;;20.59;51.79;96826.09;5055861;28;20030;-71
2022/05/19 06:13:39;;;;;;;;;;;;;;;20.68;52.13;96827.91;5056344;28;19985;-72
2022/05/19 06:16:05;;;;;;;;;;;;;;;20.70;52.20;96829.50;5056449;28;20015;-72
2022/05/19 06:18:32;;;;;;;;;;;;;;;20.59;52.03;96823.41;5056746;28;19960;-72
2022/05/19 06:20:58;;;;;;;;;;;;;;;20.58;52.21;96830.63;5056414;28;19962;-72
2022/05/19 06:23:23;;;;;;;;;;;;;;;20.66;52.36;96829.25;5056516;28;19965;-72
2022/05/19 06:25:49;;;;;;;;;;;;;;;20.86;53.30;96831.03;5056425;28;19963;-72
2022/05/19 06:28:15;;;;;;;;;;;;;;;21.08;52.00;96811.97;5058862;28;19964;-72
2022/05/19 06:30:42;;;;;;;;;;;;;;;21.24;51.30;96816.13;5038229;28;19965;-72
2022/05/19 06:33:08;;;;;;;;;;;;;;;21.32;50.70;96806.75;5056091;28;19967;-72
2022/05/19 06:35:34;;;;;;;;;;;;;;;21.29;50.59;96817.97;5056145;28;19991;-71
2022/05/19 06:38:00;;;;;;;;;;;;;;;21.27;50.85;96814.78;5056166;28;19958;-72
2022/05/19 06:40:27;;;;;;;;;;;;;;;21.42;51.04;96828.06;5055862;28;19955;-72
2022/05/19 06:42:54;;;;;;;;;;;;;;;21.56;50.57;96824.75;5056054;28;19963;-72
2022/05/19 06:45:22;;;;;;;;;;;;;;;21.37;50.33;96830.72;5055015;28;19954;-72
2022/05/19 06:47:48;;;;;;;;;;;;;;;21.32;50.78;96837.97;5055856;28;19958;-72
2022/05/19 06:50:15;;;;;;;;;;;;;;;21.56;51.29;96848.75;5038147;28;19974;-72
2022/05/19 06:52:43;;;;;;;;;;;;;;;21.72;50.31;96836.88;5055752;28;19976;-72
2022/05/19 06:55:10;;;;;;;;;;;;;;;21.81;50.23;96845.09;5055812;28;20432;-72
2022/05/19 06:57:36;;;;;;;;;;;;;;;21.80;50.27;96840.84;5055898;28;19957;-72
2022/05/19 07:00:03;;;;;;;;;;;;;;;21.77;50.16;96838.72;5056243;28;20420;-72
2022/05/19 07:02:29;;;;;;;;;;;;;;;21.73;50.55;96848.34;5055524;28;19968;-72
2022/05/19 07:04:55;;;;;;;;;;;;;;;21.74;50.97;96858.75;5055607;28;19989;-73
2022/05/19 07:07:21;;;;;;;;;;;;;;;21.92;49.94;96853.81;5055587;28;20051;-72
2022/05/19 07:09:47;;;;;;;;;;;;;;;22.01;50.24;96850.25;5054127;28;19986;-72
2022/05/19 07:12:20;;;;;;;;;;;;;;;22.05;50.26;96842.47;5055699;28;19977;-72
2022/05/19 07:14:49;;;;;;;;;;;;;;;22.14;50.59;96853.34;5055564;28;19957;-72
2022/05/19 07:17:15;;;;;;;;;;;;;;;22.13;49.74;96843.72;5055382;28;19960;-72
2022/05/19 07:22:25;;;;;;;;;;;;;;;21.94;49.46;96844.44;5055673;28;19953;-72
2022/05/19 07:24:51;;;;;;;;;;;;;;;21.90;50.11;96854.06;5055455;28;20302;-72
2022/05/19 07:27:17;;;;;;;;;;;;;;;21.93;50.51;96861.53;5055349;28;20036;-72
2022/05/19 07:29:43;;;;;;;;;;;;;;;22.08;49.99;96857.94;5055088;28;20337;-72
2022/05/19 07:32:30;;;;;;;;;;;;;;;22.18;50.51;96857.84;5032824;28;19964;-72
2022/05/19 07:34:56;;;;;;;;;;;;;;;22.28;50.38;96856.97;5037403;28;20059;-72
2022/05/19 07:37:23;;;;;;;;;;;;;;;22.45;51.25;96867.22;5055215;28;20309;-72
2022/05/19 07:39:50;;;;;;;;;;;;;;;22.66;50.67;96859.78;5037293;28;19949;-72
2022/05/19 07:42:16;;;;;;;;;;;;;;;22.86;50.11;96862.19;5054936;28;19966;-72
2022/05/19 07:44:42;;;;;;;;;;;;;;;23.00;49.82;96856.13;5054651;28;20493;-72
2022/05/19 07:47:08;;;;;;;;;;;;;;;22.90;49.50;96857.84;5054728;28;19954;-72
2022/05/19 07:49:34;;;;;;;;;;;;;;;22.83;49.59;96861.97;5055180;28;19962;-72
2022/05/19 07:52:00;;;;;;;;;;;;;;;22.83;50.21;96870.78;5054729;28;20403;-72
2022/05/19 07:54:27;;;;;;;;;;;;;;;22.95;49.88;96867.72;5054705;28;19976;-72
2022/05/19 07:56:53;;;;;;;;;;;;;;;23.10;49.72;96867.53;5053872;28;20421;-72
2022/05/19 07:59:20;;;;;;;;;;;;;;;23.23;48.74;96859.88;5054847;28;19965;-72
2022/05/19 08:01:46;;;;;;;;;;;;;;;23.25;50.79;96884.47;5054480;28;19957;-72
2022/05/19 08:04:13;;;;;;;;;;;;;;;23.58;49.59;96868.44;5054706;28;20426;-72
2022/05/19 08:06:39;;;;;;;;;;;;;;;23.89;48.81;96863.44;5054605;28;20424;-72
2022/05/19 08:12:04;;;;;;;;;;;;;;;23.99;48.19;96859.78;5007631;28;20348;-72
2022/05/19 08:17:18;;;;;;;;;;;;;;;24.14;46.83;96854.16;5034428;28;19955;-72
2022/05/19 08:19:45;;;;;;;;;;;;;;;24.06;46.67;96844.91;5034319;28;19968;-72
2022/05/19 08:22:11;;;;;;;;;;;;;;;24.01;46.85;96849.59;5034218;28;19959;-73
2022/05/19 08:24:37;;;;;;;;;;;;;;;24.03;47.52;96860.81;5034266;28;19967;-72
2022/05/19 08:27:03;;;;;;;;;;;;;;;24.14;47.71;96856.06;5034553;28;19971;-72
2022/05/19 08:29:29;;;;;;;;;;;;;;;24.28;47.75;96846.94;5034054;28;19957;-72
2022/05/19 08:31:55;;;;;;;;;;;;;;;24.43;47.23;96850.44;5034031;28;20044;-72
2022/05/19 08:34:22;;;;;;;;;;;;;;;24.55;47.90;96858.81;5034062;28;19975;-72
2022/05/19 08:36:55;;;;;;;;;;;;;;;24.54;47.27;96849.16;5035557;28;19958;-72
2022/05/19 08:39:22;;;;;;;;;;;;;;;24.58;48.03;96857.41;5033968;28;20422;-73
2022/05/19 08:41:58;;;;;;;;;;;;;;;24.67;47.28;96839.53;5034181;28;19976;-73
2022/05/19 08:44:48;;;;;;;;;;;;;;;24.84;47.11;96841.59;5034085;28;19964;-72
2022/05/19 08:47:15;;;;;;;;;;;;;;;24.90;46.76;96849.25;5034002;28;19952;-72
2022/05/19 08:49:47;;;;;;;;;;;;;;;24.86;45.93;96842.06;5034048;28;19962;-72
2022/05/19 08:52:21;;;;;;;;;;;;;;;24.82;46.52;96863.38;5034050;28;19959;-72
2022/05/19 08:54:48;;;;;;;;;;;;;;;24.82;47.65;96865.22;5034065;28;19973;-72
2022/05/19 08:57:17;;;;;;;;;;;;;;;24.89;48.02;96866.44;5033822;28;19968;-72
2022/05/19 09:00:04;;;;;;;;;;;;;;;25.02;47.40;96855.97;5033873;28;20440;-72
2022/05/19 09:02:48;;;;;;;;;;;;;;;25.20;47.26;96847.03;5032444;28;19954;-72
2022/05/19 09:05:14;;;;;;;;;;;;;;;25.28;46.49;96843.63;5033617;28;19958;-72
2022/05/19 09:07:57;;;;;;;;;;;;;;;25.34;47.32;96843.50;5033537;28;19963;-72
2022/05/19 09:10:28;;;;;;;;;;;;;;;25.52;47.86;96853.28;5035091;28;19956;-72
2022/05/19 09:13:07;;;;;;;;;;;;;;;25.65;46.14;96833.63;5043440;28;19970;-72
2022/05/19 09:15:34;;;;;;;;;;;;;;;25.64;46.08;96844.66;5053751;28;19957;-72
2022/05/19 09:18:00;;;;;;;;;;;;;;;25.56;46.32;96835.47;5053726;28;19961;-72
2022/05/19 09:20:31;;;;;;;;;;;;;;;25.67;47.15;96842.16;5053372;28;19962;-73
2022/05/19 09:23:04;;;;;;;;;;;;;;;25.80;46.43;96842.41;5053742;28;19979;-72
2022/05/19 09:25:30;;;;;;;;;;;;;;;25.92;46.05;96834.63;5035715;28;20327;-72
2022/05/19 09:27:58;;;;;;;;;;;;;;;26.05;46.75;96843.69;5053470;28;19957;-72
2022/05/19 09:30:34;;;;;;;;;;;;;;;26.21;46.51;96836.03;5053413;28;19960;-73
2022/05/19 09:33:04;;;;;;;;;;;;;;;26.37;46.55;96839.09;5053269;28;19959;-72
2022/05/19 09:35:36;;;;;;;;;;;;;;;26.52;47.51;96839.47;5053250;28;19959;-72
2022/05/19 09:38:13;;;;;;;;;;;;;;;26.61;46.56;96834.16;5053650;28;19959;-72
2022/05/19 09:40:41;;;;;;;;;;;;;;;26.80;45.86;96827.72;5053453;28;19969;-72
2022/05/19 09:43:15;;;;;;;;;;;;;;;26.96;46.63;96838.81;5053144;28;19962;-72
2022/05/19 09:45:42;;;;;;;;;;;;;;;27.19;45.74;96818.72;5053090;28;19958;-72
2022/05/19 09:48:09;;;;;;;;;;;;;;;27.29;45.39;96820.34;5053278;28;19965;-72
2022/05/19 09:50:43;;;;;;;;;;;;;;;27.43;43.90;96814.78;5053486;28;19963;-72
2022/05/19 09:53:14;;;;;;;;;;;;;;;27.60;43.86;96824.75;5053190;28;20422;-72
2022/05/19 09:55:41;;;;;;;;;;;;;;;27.73;41.99;96815.69;5053292;28;19960;-72
2022/05/19 09:58:18;;;;;;;;;;;;;;;27.87;43.25;96823.63;5053329;28;19960;-72
2022/05/19 10:00:53;;;;;;;;;;;;;;;27.97;42.98;96825.19;5052909;28;19957;-72
2022/05/19 10:03:25;;;;;;;;;;;;;;;28.13;41.13;96815.47;5052944;28;19958;-72
2022/05/19 10:05:55;;;;;;;;;;;;;;;28.25;40.81;96804.00;5053099;28;20443;-72
2022/05/19 10:08:21;;;;;;;;;;;;;;;28.30;40.94;96817.28;5052898;28;19950;-72
2022/05/19 10:10:53;;;;;;;;;;;;;;;28.44;40.86;96811.69;5052898;28;20450;-72
2022/05/19 10:13:24;;;;;;;;;;;;;;;28.63;37.10;96806.69;5052855;28;20334;-72
2022/05/19 10:16:10;;;;;;;;;;;;;;;28.81;36.85;96820.06;5053378;28;19955;-72
2022/05/19 10:18:52;;;;;;;;;;;;;;;28.98;35.54;96819.97;5022750;28;19953;-72
2022/05/19 10:21:32;;;;;;;;;;;;;;;29.23;35.76;96815.53;5056238;28;20003;-72
2022/05/19 10:24:13;;;;;;;;;;;;;;;29.40;35.79;96817.31;5056318;28;19960;-72
2022/05/19 10:26:39;;;;;;;;;;;;;;;29.45;33.58;96822.50;5055712;28;19956;-72
2022/05/19 10:31:49;;;;;;;;;;;;;;;29.70;35.15;96807.19;5043043;28;19954;-72
2022/05/19 10:34:15;;;;;;;;;;;;;;;29.86;33.32;96809.25;5056317;28;20331;-73
2022/05/19 10:37:03;;;;;;;;;;;;;;;29.98;34.09;96811.97;5007474;28;20415;-72
2022/05/19 10:39:37;;;;;;;;;;;;;;;30.12;33.36;96806.25;5056025;28;19959;-72
2022/05/19 10:42:06;;;;;;;;;;;;;;;30.22;32.33;96796.91;5056169;28;20319;-72
2022/05/19 10:44:46;;;;;;;;;;;;;;;30.27;31.13;96788.56;5056163;28;19957;-73
2022/05/19 10:47:15;;;;;;;;;;;;;;;30.29;32.77;96800.66;5038537;28;20410;-72
2022/05/19 10:49:41;;;;;;;;;;;;;;;30.37;32.67;96801.69;5046096;28;19962;-72
2022/05/19 10:52:31;;;;;;;;;;;;;;;30.49;33.36;96798.16;5055854;28;20361;-72
2022/05/19 10:55:03;;;;;;;;;;;;;;;30.64;32.42;96785.88;5048211;28;20352;-72
2022/05/19 10:57:35;;;;;;;;;;;;;;;30.72;33.20;96783.06;5055932;28;20431;-72
2022/05/19 11:00:13;;;;;;;;;;;;;;;30.85;34.25;96794.66;5056008;28;20342;-73
2022/05/19 11:03:02;;;;;;;;;;;;;;;30.98;32.08;96791.94;5053973;28;19958;-72
2022/05/19 11:05:27;;;;;;;;;;;;;;;30.97;32.27;96779.53;5055584;28;19950;-72
2022/05/19 11:08:09;;;;;;;;;;;;;;;31.04;30.46;96772.41;5055648;28;19985;-72
2022/05/19 11:10:51;;;;;;;;;;;;;;;31.19;31.89;96779.00;5054564;28;19992;-72
2022/05/19 11:13:23;;;;;;;;;;;;;;;31.40;32.04;96781.53;5055433;28;19962;-72
2022/05/19 11:16:02;;;;;;;;;;;;;;;31.48;30.54;96783.34;5056136;28;19955;-72
2022/05/19 11:18:52;;;;;;;;;;;;;;;31.53;30.69;96777.66;5055642;28;19965;-72
2022/05/19 11:21:37;;;;;;;;;;;;;;;31.52;30.61;96786.94;5055444;28;20327;-72
2022/05/19 11:24:05;;;;;;;;;;;;;;;31.55;29.86;96788.94;5043052;28;19957;-72
2022/05/19 11:26:38;;;;;;;;;;;;;;;31.63;30.75;96781.00;5055248;28;19962;-72
2022/05/19 11:29:06;;;;;;;;;;;;;;;31.70;30.37;96778.47;5055357;28;19954;-72
2022/05/19 11:31:41;;;;;;;;;;;;;;;31.73;29.95;96778.56;5055240;28;19956;-72
2022/05/19 11:34:20;;;;;;;;;;;;;;;31.85;30.20;96779.63;5055087;28;19970;-72
2022/05/19 11:36:50;;;;;;;;;;;;;;;32.03;30.05;96778.19;5055208;28;19953;-72
2022/05/19 11:39:35;;;;;;;;;;;;;;;32.10;29.11;96772.91;5055362;28;19956;-72
2022/05/19 11:42:07;;;;;;;;;;;;;;;32.17;28.62;96772.28;5045010;28;19984;-72
2022/05/19 11:44:37;;;;;;;;;;;;;;;32.23;29.34;96779.03;5054942;28;20429;-72
2022/05/19 11:55:12;;;;;;;;;;;;;;;32.29;28.70;96769.50;5054902;28;19955;-72
2022/05/19 11:55:47;;;;;;;;;;;;;;;32.21;30.13;96785.97;5054830;28;19969;-72
2022/05/19 11:58:22;;;;;;;;;;;;;;;32.36;29.10;96772.38;5054625;28;19953;-72
2022/05/19 12:00:48;;;;;;;;;;;;;;;32.33;nan;96770.38;5054650;28;19955;-73
2022/05/19 12:03:17;;;;;;;;;;;;;;;32.03;28.24;96771.97;5054741;28;20009;-72
2022/05/19 12:05:58;;;;;;;;;;;;;;;31.76;27.43;96761.59;5054469;28;19956;-71
2022/05/19 12:08:27;;;;;;;;;;;;;;;31.85;28.07;96769.56;5054536;28;19965;-71
2022/05/19 12:11:13;;;;;;;;;;;;;;;32.06;29.00;96771.25;5054057;28;19985;-71
2022/05/19 12:13:43;;;;;;;;;;;;;;;32.31;27.66;96769.16;5013462;28;19990;-72
2022/05/19 12:16:22;;;;;;;;;;;;;;;32.50;25.99;96763.00;5054624;28;19976;-72
2022/05/19 12:19:02;;;;;;;;;;;;;;;32.57;27.00;96774.06;5042073;28;19959;-72
2022/05/19 12:21:31;;;;;;;;;;;;;;;32.68;26.57;96766.91;5054410;28;19955;-72
2022/05/19 12:24:03;;;;;;;;;;;;;;;32.44;25.29;96761.69;5054161;28;19959;-72
2022/05/19 12:26:36;;;;;;;;;;;;;;;32.39;27.52;96765.47;5054341;28;19957;-71
2022/05/19 12:29:01;;;;;;;;;;;;;;;32.27;25.75;96768.28;5054075;28;19971;-72
2022/05/19 12:31:59;;;;;;;;;;;;;;;32.26;26.20;96767.50;5054014;28;20043;-72
2022/05/19 12:34:31;;;;;;;;;;;;;;;32.14;27.12;96768.38;5054026;28;19985;-72
2022/05/19 12:37:06;;;;;;;;;;;;;;;32.11;26.20;96763.66;5054298;28;19963;-71
2022/05/19 12:39:48;;;;;;;;;;;;;;;31.99;26.64;96755.59;5052687;28;19955;-71
2022/05/19 12:42:24;;;;;;;;;;;;;;;31.92;27.16;96749.97;5053579;28;19957;-71
2022/05/19 12:44:51;;;;;;;;;;;;;;;31.93;27.59;96746.13;5053751;28;19974;-72
2022/05/19 12:47:20;;;;;;;;;;;;;;;31.94;28.18;96756.63;5054330;28;19961;-72
2022/05/19 12:50:02;;;;;;;;;;;;;;;31.92;25.83;96748.06;5053832;28;20312;-71
2022/05/19 12:53:05;;;;;;;;;;;;;;;31.88;27.83;96752.59;5053713;28;19960;-72
2022/05/19 12:55:38;;;;;;;;;;;;;;;31.91;27.88;96740.25;5022110;28;19977;-71
2022/05/19 12:58:25;;;;;;;;;;;;;;;31.98;27.07;96747.78;5052527;28;19958;-71
2022/05/19 13:00:52;;;;;;;;;;;;;;;31.92;25.78;96747.28;5053521;28;19967;-72
2022/05/19 13:03:18;;;;;;;;;;;;;;;31.96;27.54;96743.50;5053549;28;19954;-72
2022/05/19 13:05:46;;;;;;;;;;;;;;;31.85;26.93;96742.44;5053564;28;20331;-72
2022/05/19 13:08:14;;;;;;;;;;;;;;;31.61;26.74;96745.31;5053460;28;20305;-72
2022/05/19 13:10:43;;;;;;;;;;;;;;;31.54;27.70;96738.56;5053322;28;19988;-72
2022/05/19 13:13:30;;;;;;;;;;;;;;;31.61;27.70;96735.25;5053018;28;19967;-72
2022/05/19 13:15:58;;;;;;;;;;;;;;;31.70;27.53;96737.78;5043917;28;19975;-72
2022/05/19 13:18:30;;;;;;;;;;;;;;;31.72;27.38;96744.44;5053272;28;19963;-72
2022/05/19 13:21:34;;;;;;;;;;;;;;;31.78;27.00;96744.19;5053869;28;19955;-72